sensor_id;sensor_type;location;lat;lon;timestamp;P1;durP1;ratioP1;P2;durP2;ratioP2
11447;SDS011;43755;49.736;8.734;2023-02-15T00:01:29;18.00;;;12.63;;
11447;SDS011;43755;49.736;8.734;2023-02-15T00:03:32;47.45;;;13.23;;
11447;SDS011;43755;49.736;8.734;2023-02-15T00:05:34;236.07;;;18.80;;
11447;SDS011;43755;49.736;8.734;2023-02-15T00:07:35;19.25;;;13.13;;
11447;SDS011;43755;49.736;8.734;2023-02-15T00:09:37;15.73;;;12.95;;
11447;SDS011;43755;49.736;8.734;2023-02-15T00:11:38;162.07;;;17.33;;
11447;SDS011;43755;49.736;8.734;2023-02-15T00:13:40;227.52;;;20.60;;
11447;SDS011;43755;49.736;8.734;2023-02-15T00:15:42;188.32;;;18.20;;
11447;SDS011;43755;49.736;8.734;2023-02-15T00:17:43;131.00;;;14.55;;
11447;SDS011;43755;49.736;8.734;2023-02-15T00:19:46;45.40;;;12.82;;
11447;SDS011;43755;49.736;8.734;2023-02-15T00:21:47;178.25;;;17.73;;
11447;SDS011;43755;49.736;8.734;2023-02-15T00:23:49;91.53;;;16.90;;
11447;SDS011;43755;49.736;8.734;2023-02-15T00:25:51;74.78;;;15.98;;
11447;SDS011;43755;49.736;8.734;2023-02-15T00:27:52;129.68;;;18.58;;
11447;SDS011;43755;49.736;8.734;2023-02-15T00:29:53;15.18;;;12.75;;
11447;SDS011;43755;49.736;8.734;2023-02-15T00:31:55;24.15;;;13.30;;
11447;SDS011;43755;49.736;8.734;2023-02-15T00:34:00;93.95;;;15.05;;
11447;SDS011;43755;49.736;8.734;2023-02-15T00:36:04;30.52;;;14.40;;
11447;SDS011;43755;49.736;8.734;2023-02-15T00:38:07;27.77;;;13.23;;
11447;SDS011;43755;49.736;8.734;2023-02-15T00:40:08;102.43;;;14.95;;
11447;SDS011;43755;49.736;8.734;2023-02-15T00:42:10;46.72;;;12.93;;
11447;SDS011;43755;49.736;8.734;2023-02-15T00:44:12;72.10;;;16.48;;
11447;SDS011;43755;49.736;8.734;2023-02-15T00:46:13;54.58;;;14.20;;
11447;SDS011;43755;49.736;8.734;2023-02-15T00:48:15;208.18;;;21.20;;
11447;SDS011;43755;49.736;8.734;2023-02-15T00:50:16;14.07;;;12.00;;
11447;SDS011;43755;49.736;8.734;2023-02-15T00:52:19;116.50;;;14.95;;
11447;SDS011;43755;49.736;8.734;2023-02-15T00:54:20;60.70;;;13.95;;
11447;SDS011;43755;49.736;8.734;2023-02-15T00:56:22;259.58;;;20.17;;
11447;SDS011;43755;49.736;8.734;2023-02-15T00:58:23;151.85;;;16.25;;
11447;SDS011;43755;49.736;8.734;2023-02-15T01:00:25;75.20;;;13.48;;
11447;SDS011;43755;49.736;8.734;2023-02-15T01:02:26;207.00;;;18.27;;
11447;SDS011;43755;49.736;8.734;2023-02-15T01:04:28;13.93;;;11.95;;
11447;SDS011;43755;49.736;8.734;2023-02-15T01:06:29;23.55;;;12.73;;
11447;SDS011;43755;49.736;8.734;2023-02-15T01:08:32;50.15;;;14.20;;
11447;SDS011;43755;49.736;8.734;2023-02-15T01:10:34;21.20;;;13.70;;
11447;SDS011;43755;49.736;8.734;2023-02-15T01:12:37;155.35;;;16.80;;
11447;SDS011;43755;49.736;8.734;2023-02-15T01:14:38;16.27;;;12.35;;
11447;SDS011;43755;49.736;8.734;2023-02-15T01:16:40;14.73;;;12.32;;
11447;SDS011;43755;49.736;8.734;2023-02-15T01:18:41;22.35;;;13.05;;
11447;SDS011;43755;49.736;8.734;2023-02-15T01:20:42;15.90;;;12.95;;
11447;SDS011;43755;49.736;8.734;2023-02-15T01:22:44;189.68;;;18.77;;
11447;SDS011;43755;49.736;8.734;2023-02-15T01:24:48;92.75;;;17.15;;
11447;SDS011;43755;49.736;8.734;2023-02-15T01:26:49;80.93;;;14.60;;
11447;SDS011;43755;49.736;8.734;2023-02-15T01:28:51;116.38;;;15.82;;
11447;SDS011;43755;49.736;8.734;2023-02-15T01:30:52;60.03;;;14.70;;
11447;SDS011;43755;49.736;8.734;2023-02-15T01:32:53;28.17;;;12.13;;
11447;SDS011;43755;49.736;8.734;2023-02-15T01:34:55;24.23;;;12.05;;
11447;SDS011;43755;49.736;8.734;2023-02-15T01:36:56;19.23;;;11.63;;
11447;SDS011;43755;49.736;8.734;2023-02-15T01:38:58;20.65;;;12.00;;
11447;SDS011;43755;49.736;8.734;2023-02-15T01:41:00;97.13;;;14.23;;
11447;SDS011;43755;49.736;8.734;2023-02-15T01:43:16;18.92;;;12.35;;
11447;SDS011;43755;49.736;8.734;2023-02-15T01:45:19;119.18;;;14.98;;
11447;SDS011;43755;49.736;8.734;2023-02-15T01:47:24;21.33;;;12.85;;
11447;SDS011;43755;49.736;8.734;2023-02-15T01:49:31;14.70;;;12.30;;
11447;SDS011;43755;49.736;8.734;2023-02-15T01:51:34;134.30;;;15.55;;
11447;SDS011;43755;49.736;8.734;2023-02-15T01:53:38;50.33;;;12.35;;
11447;SDS011;43755;49.736;8.734;2023-02-15T01:55:44;55.72;;;12.88;;
11447;SDS011;43755;49.736;8.734;2023-02-15T01:57:52;38.95;;;13.18;;
11447;SDS011;43755;49.736;8.734;2023-02-15T01:59:55;20.55;;;12.70;;
11447;SDS011;43755;49.736;8.734;2023-02-15T02:01:59;19.17;;;12.27;;
11447;SDS011;43755;49.736;8.734;2023-02-15T02:04:05;15.20;;;11.60;;
11447;SDS011;43755;49.736;8.734;2023-02-15T02:06:12;92.55;;;13.27;;
11447;SDS011;43755;49.736;8.734;2023-02-15T02:08:14;63.42;;;12.98;;
11447;SDS011;43755;49.736;8.734;2023-02-15T02:10:16;29.05;;;12.50;;
11447;SDS011;43755;49.736;8.734;2023-02-15T02:12:19;153.82;;;17.20;;
11447;SDS011;43755;49.736;8.734;2023-02-15T02:14:24;13.40;;;11.98;;
11447;SDS011;43755;49.736;8.734;2023-02-15T02:16:28;26.35;;;11.90;;
11447;SDS011;43755;49.736;8.734;2023-02-15T02:18:37;20.58;;;11.18;;
11447;SDS011;43755;49.736;8.734;2023-02-15T02:20:59;57.97;;;11.77;;
11447;SDS011;43755;49.736;8.734;2023-02-15T02:23:16;12.52;;;10.55;;
11447;SDS011;43755;49.736;8.734;2023-02-15T02:25:32;29.13;;;12.13;;
11447;SDS011;43755;49.736;8.734;2023-02-15T02:27:54;20.63;;;10.02;;
11447;SDS011;43755;49.736;8.734;2023-02-15T02:30:17;15.82;;;10.57;;
11447;SDS011;43755;49.736;8.734;2023-02-15T02:35:22;41.67;;;12.68;;
11447;SDS011;43755;49.736;8.734;2023-02-15T02:37:28;40.50;;;12.18;;
11447;SDS011;43755;49.736;8.734;2023-02-15T02:39:37;14.20;;;11.50;;
11447;SDS011;43755;49.736;8.734;2023-02-15T02:41:51;26.95;;;12.32;;
11447;SDS011;43755;49.736;8.734;2023-02-15T02:44:01;12.32;;;10.80;;
11447;SDS011;43755;49.736;8.734;2023-02-15T02:46:10;84.50;;;12.25;;
11447;SDS011;43755;49.736;8.734;2023-02-15T02:48:21;25.42;;;11.48;;
11447;SDS011;43755;49.736;8.734;2023-02-15T02:50:26;13.80;;;10.77;;
11447;SDS011;43755;49.736;8.734;2023-02-15T02:52:34;47.65;;;12.07;;
11447;SDS011;43755;49.736;8.734;2023-02-15T02:54:40;46.28;;;13.43;;
11447;SDS011;43755;49.736;8.734;2023-02-15T02:56:43;39.40;;;12.45;;
11447;SDS011;43755;49.736;8.734;2023-02-15T02:58:48;40.30;;;11.05;;
11447;SDS011;43755;49.736;8.734;2023-02-15T03:00:56;11.30;;;10.13;;
11447;SDS011;43755;49.736;8.734;2023-02-15T03:03:06;24.30;;;10.70;;
11447;SDS011;43755;49.736;8.734;2023-02-15T03:05:14;55.17;;;12.20;;
11447;SDS011;43755;49.736;8.734;2023-02-15T03:07:18;41.58;;;11.98;;
11447;SDS011;43755;49.736;8.734;2023-02-15T03:09:24;13.05;;;10.80;;
11447;SDS011;43755;49.736;8.734;2023-02-15T03:11:34;16.38;;;12.02;;
11447;SDS011;43755;49.736;8.734;2023-02-15T03:13:36;45.05;;;13.40;;
11447;SDS011;43755;49.736;8.734;2023-02-15T03:15:38;23.15;;;12.65;;
11447;SDS011;43755;49.736;8.734;2023-02-15T03:18:00;79.15;;;14.00;;
11447;SDS011;43755;49.736;8.734;2023-02-15T03:20:04;72.28;;;12.60;;
11447;SDS011;43755;49.736;8.734;2023-02-15T03:22:13;50.05;;;12.40;;
11447;SDS011;43755;49.736;8.734;2023-02-15T03:24:19;19.58;;;11.43;;
11447;SDS011;43755;49.736;8.734;2023-02-15T03:26:24;38.75;;;12.45;;
11447;SDS011;43755;49.736;8.734;2023-02-15T03:28:28;56.05;;;12.80;;
11447;SDS011;43755;49.736;8.734;2023-02-15T03:30:34;40.40;;;12.55;;
11447;SDS011;43755;49.736;8.734;2023-02-15T03:32:37;18.00;;;11.70;;
11447;SDS011;43755;49.736;8.734;2023-02-15T03:34:40;26.10;;;11.70;;
11447;SDS011;43755;49.736;8.734;2023-02-15T03:36:44;93.78;;;14.40;;
11447;SDS011;43755;49.736;8.734;2023-02-15T03:38:51;20.88;;;11.77;;
11447;SDS011;43755;49.736;8.734;2023-02-15T03:40:59;69.57;;;13.73;;
11447;SDS011;43755;49.736;8.734;2023-02-15T03:43:11;19.33;;;10.48;;
11447;SDS011;43755;49.736;8.734;2023-02-15T03:45:20;28.75;;;12.20;;
11447;SDS011;43755;49.736;8.734;2023-02-15T03:47:26;14.90;;;12.00;;
11447;SDS011;43755;49.736;8.734;2023-02-15T03:49:32;40.97;;;11.77;;
11447;SDS011;43755;49.736;8.734;2023-02-15T03:51:40;15.07;;;10.10;;
11447;SDS011;43755;49.736;8.734;2023-02-15T03:53:44;25.55;;;10.77;;
11447;SDS011;43755;49.736;8.734;2023-02-15T03:55:49;20.88;;;10.88;;
11447;SDS011;43755;49.736;8.734;2023-02-15T03:57:54;54.80;;;11.60;;
11447;SDS011;43755;49.736;8.734;2023-02-15T04:00:14;19.25;;;11.15;;
11447;SDS011;43755;49.736;8.734;2023-02-15T04:02:36;48.28;;;11.57;;
11447;SDS011;43755;49.736;8.734;2023-02-15T04:04:41;108.18;;;14.48;;
11447;SDS011;43755;49.736;8.734;2023-02-15T04:06:46;30.77;;;11.85;;
11447;SDS011;43755;49.736;8.734;2023-02-15T04:08:48;24.67;;;12.23;;
11447;SDS011;43755;49.736;8.734;2023-02-15T04:11:08;30.88;;;11.75;;
11447;SDS011;43755;49.736;8.734;2023-02-15T04:13:09;34.90;;;12.00;;
11447;SDS011;43755;49.736;8.734;2023-02-15T04:15:11;25.98;;;11.55;;
11447;SDS011;43755;49.736;8.734;2023-02-15T04:17:31;17.75;;;11.93;;
11447;SDS011;43755;49.736;8.734;2023-02-15T04:19:32;27.17;;;12.02;;
11447;SDS011;43755;49.736;8.734;2023-02-15T04:21:51;21.77;;;12.18;;
11447;SDS011;43755;49.736;8.734;2023-02-15T04:24:10;100.07;;;14.45;;
11447;SDS011;43755;49.736;8.734;2023-02-15T04:26:31;18.73;;;12.48;;
11447;SDS011;43755;49.736;8.734;2023-02-15T04:28:32;18.92;;;13.02;;
11447;SDS011;43755;49.736;8.734;2023-02-15T04:30:34;62.30;;;13.50;;
11447;SDS011;43755;49.736;8.734;2023-02-15T04:32:35;64.72;;;15.05;;
11447;SDS011;43755;49.736;8.734;2023-02-15T04:34:37;109.95;;;17.20;;
11447;SDS011;43755;49.736;8.734;2023-02-15T04:36:38;41.83;;;14.55;;
11447;SDS011;43755;49.736;8.734;2023-02-15T04:38:40;24.35;;;14.75;;
11447;SDS011;43755;49.736;8.734;2023-02-15T04:40:42;44.10;;;15.75;;
11447;SDS011;43755;49.736;8.734;2023-02-15T04:42:45;120.38;;;18.17;;
11447;SDS011;43755;49.736;8.734;2023-02-15T04:44:48;35.30;;;14.82;;
11447;SDS011;43755;49.736;8.734;2023-02-15T04:46:49;60.90;;;16.55;;
11447;SDS011;43755;49.736;8.734;2023-02-15T04:48:51;45.58;;;16.23;;
11447;SDS011;43755;49.736;8.734;2023-02-15T04:50:52;80.00;;;18.30;;
11447;SDS011;43755;49.736;8.734;2023-02-15T04:52:53;44.28;;;17.73;;
11447;SDS011;43755;49.736;8.734;2023-02-15T04:54:55;33.28;;;16.05;;
11447;SDS011;43755;49.736;8.734;2023-02-15T04:56:56;25.13;;;16.63;;
11447;SDS011;43755;49.736;8.734;2023-02-15T04:58:59;28.38;;;16.80;;
11447;SDS011;43755;49.736;8.734;2023-02-15T05:01:00;39.63;;;16.83;;
11447;SDS011;43755;49.736;8.734;2023-02-15T05:03:02;35.33;;;18.05;;
11447;SDS011;43755;49.736;8.734;2023-02-15T05:05:03;23.70;;;15.50;;
11447;SDS011;43755;49.736;8.734;2023-02-15T05:07:05;25.55;;;16.40;;
11447;SDS011;43755;49.736;8.734;2023-02-15T05:09:07;24.73;;;15.73;;
11447;SDS011;43755;49.736;8.734;2023-02-15T05:11:08;22.23;;;15.40;;
11447;SDS011;43755;49.736;8.734;2023-02-15T05:13:09;33.63;;;15.95;;
11447;SDS011;43755;49.736;8.734;2023-02-15T05:15:12;39.33;;;15.50;;
11447;SDS011;43755;49.736;8.734;2023-02-15T05:17:14;26.05;;;15.88;;
11447;SDS011;43755;49.736;8.734;2023-02-15T05:19:15;22.00;;;14.45;;
11447;SDS011;43755;49.736;8.734;2023-02-15T05:21:16;24.20;;;15.50;;
11447;SDS011;43755;49.736;8.734;2023-02-15T05:23:18;35.10;;;16.27;;
11447;SDS011;43755;49.736;8.734;2023-02-15T05:25:19;34.13;;;17.48;;
11447;SDS011;43755;49.736;8.734;2023-02-15T05:27:38;34.53;;;15.13;;
11447;SDS011;43755;49.736;8.734;2023-02-15T05:29:57;20.80;;;14.55;;
11447;SDS011;43755;49.736;8.734;2023-02-15T05:32:00;27.27;;;15.60;;
11447;SDS011;43755;49.736;8.734;2023-02-15T05:34:02;25.50;;;15.52;;
11447;SDS011;43755;49.736;8.734;2023-02-15T05:36:04;24.75;;;15.43;;
11447;SDS011;43755;49.736;8.734;2023-02-15T05:38:07;35.97;;;15.75;;
11447;SDS011;43755;49.736;8.734;2023-02-15T05:40:08;19.85;;;14.57;;
11447;SDS011;43755;49.736;8.734;2023-02-15T05:42:10;24.80;;;14.77;;
11447;SDS011;43755;49.736;8.734;2023-02-15T05:44:12;25.77;;;17.40;;
11447;SDS011;43755;49.736;8.734;2023-02-15T05:46:13;36.85;;;16.30;;
11447;SDS011;43755;49.736;8.734;2023-02-15T05:48:16;51.97;;;15.13;;
11447;SDS011;43755;49.736;8.734;2023-02-15T05:50:18;34.13;;;19.50;;
11447;SDS011;43755;49.736;8.734;2023-02-15T05:52:19;30.85;;;20.48;;
11447;SDS011;43755;49.736;8.734;2023-02-15T05:54:21;35.47;;;17.02;;
11447;SDS011;43755;49.736;8.734;2023-02-15T05:56:22;32.75;;;17.83;;
11447;SDS011;43755;49.736;8.734;2023-02-15T05:58:24;52.03;;;16.77;;
11447;SDS011;43755;49.736;8.734;2023-02-15T06:00:26;33.72;;;16.88;;
11447;SDS011;43755;49.736;8.734;2023-02-15T06:02:28;28.45;;;15.43;;
11447;SDS011;43755;49.736;8.734;2023-02-15T06:04:30;29.50;;;16.00;;
11447;SDS011;43755;49.736;8.734;2023-02-15T06:06:32;43.65;;;16.55;;
11447;SDS011;43755;49.736;8.734;2023-02-15T06:08:34;24.90;;;15.23;;
11447;SDS011;43755;49.736;8.734;2023-02-15T06:10:37;28.35;;;16.90;;
11447;SDS011;43755;49.736;8.734;2023-02-15T06:12:40;27.90;;;15.90;;
11447;SDS011;43755;49.736;8.734;2023-02-15T06:14:41;29.15;;;17.10;;
11447;SDS011;43755;49.736;8.734;2023-02-15T06:16:42;31.08;;;17.20;;
11447;SDS011;43755;49.736;8.734;2023-02-15T06:18:45;29.83;;;17.02;;
11447;SDS011;43755;49.736;8.734;2023-02-15T06:20:48;32.42;;;18.42;;
11447;SDS011;43755;49.736;8.734;2023-02-15T06:22:49;44.45;;;19.33;;
11447;SDS011;43755;49.736;8.734;2023-02-15T06:24:50;47.40;;;19.17;;
11447;SDS011;43755;49.736;8.734;2023-02-15T06:26:52;36.38;;;18.75;;
11447;SDS011;43755;49.736;8.734;2023-02-15T06:28:53;37.38;;;19.67;;
11447;SDS011;43755;49.736;8.734;2023-02-15T06:30:55;37.00;;;18.35;;
11447;SDS011;43755;49.736;8.734;2023-02-15T06:32:56;48.95;;;19.67;;
11447;SDS011;43755;49.736;8.734;2023-02-15T06:34:58;36.53;;;18.95;;
11447;SDS011;43755;49.736;8.734;2023-02-15T06:37:00;62.65;;;20.20;;
11447;SDS011;43755;49.736;8.734;2023-02-15T06:39:02;40.50;;;19.60;;
11447;SDS011;43755;49.736;8.734;2023-02-15T06:41:04;48.33;;;20.33;;
11447;SDS011;43755;49.736;8.734;2023-02-15T06:43:05;54.78;;;19.42;;
11447;SDS011;43755;49.736;8.734;2023-02-15T06:45:07;50.83;;;19.10;;
11447;SDS011;43755;49.736;8.734;2023-02-15T06:47:09;40.33;;;18.20;;
11447;SDS011;43755;49.736;8.734;2023-02-15T06:49:10;39.55;;;17.20;;
11447;SDS011;43755;49.736;8.734;2023-02-15T06:51:12;37.78;;;16.33;;
11447;SDS011;43755;49.736;8.734;2023-02-15T06:53:15;35.70;;;15.07;;
11447;SDS011;43755;49.736;8.734;2023-02-15T06:55:16;32.35;;;14.77;;
11447;SDS011;43755;49.736;8.734;2023-02-15T06:57:18;34.47;;;15.95;;
11447;SDS011;43755;49.736;8.734;2023-02-15T06:59:19;26.70;;;14.77;;
11447;SDS011;43755;49.736;8.734;2023-02-15T07:01:20;29.98;;;14.63;;
11447;SDS011;43755;49.736;8.734;2023-02-15T07:03:22;24.42;;;14.98;;
11447;SDS011;43755;49.736;8.734;2023-02-15T07:05:23;28.45;;;16.13;;
11447;SDS011;43755;49.736;8.734;2023-02-15T07:07:30;29.50;;;15.10;;
11447;SDS011;43755;49.736;8.734;2023-02-15T07:09:33;27.33;;;15.23;;
11447;SDS011;43755;49.736;8.734;2023-02-15T07:11:34;22.58;;;15.43;;
11447;SDS011;43755;49.736;8.734;2023-02-15T07:13:53;26.67;;;15.80;;
11447;SDS011;43755;49.736;8.734;2023-02-15T07:15:55;27.17;;;15.68;;
11447;SDS011;43755;49.736;8.734;2023-02-15T07:17:56;37.63;;;17.58;;
11447;SDS011;43755;49.736;8.734;2023-02-15T07:19:58;34.25;;;16.58;;
11447;SDS011;43755;49.736;8.734;2023-02-15T07:21:59;29.05;;;16.50;;
11447;SDS011;43755;49.736;8.734;2023-02-15T07:24:01;37.22;;;16.75;;
11447;SDS011;43755;49.736;8.734;2023-02-15T07:26:04;38.65;;;17.10;;
11447;SDS011;43755;49.736;8.734;2023-02-15T07:28:06;33.38;;;17.02;;
11447;SDS011;43755;49.736;8.734;2023-02-15T07:30:10;41.13;;;19.15;;
11447;SDS011;43755;49.736;8.734;2023-02-15T07:32:13;39.45;;;17.50;;
11447;SDS011;43755;49.736;8.734;2023-02-15T07:34:14;54.30;;;18.85;;
11447;SDS011;43755;49.736;8.734;2023-02-15T07:36:16;42.30;;;18.00;;
11447;SDS011;43755;49.736;8.734;2023-02-15T07:38:17;47.45;;;18.50;;
11447;SDS011;43755;49.736;8.734;2023-02-15T07:40:19;45.40;;;18.30;;
11447;SDS011;43755;49.736;8.734;2023-02-15T07:42:24;48.60;;;18.25;;
11447;SDS011;43755;49.736;8.734;2023-02-15T07:44:25;49.03;;;20.45;;
11447;SDS011;43755;49.736;8.734;2023-02-15T07:46:27;59.22;;;18.73;;
11447;SDS011;43755;49.736;8.734;2023-02-15T07:48:30;48.20;;;16.25;;
11447;SDS011;43755;49.736;8.734;2023-02-15T07:50:32;30.73;;;16.10;;
11447;SDS011;43755;49.736;8.734;2023-02-15T07:52:33;47.60;;;17.67;;
11447;SDS011;43755;49.736;8.734;2023-02-15T07:54:35;38.00;;;19.15;;
11447;SDS011;43755;49.736;8.734;2023-02-15T07:56:36;56.65;;;20.88;;
11447;SDS011;43755;49.736;8.734;2023-02-15T07:58:39;47.20;;;19.77;;
11447;SDS011;43755;49.736;8.734;2023-02-15T08:00:55;47.15;;;19.08;;
11447;SDS011;43755;49.736;8.734;2023-02-15T08:03:01;53.63;;;21.05;;
11447;SDS011;43755;49.736;8.734;2023-02-15T08:05:15;61.47;;;22.13;;
11447;SDS011;43755;49.736;8.734;2023-02-15T08:07:18;57.13;;;20.95;;
11447;SDS011;43755;49.736;8.734;2023-02-15T08:09:19;47.42;;;20.48;;
11447;SDS011;43755;49.736;8.734;2023-02-15T08:11:21;49.00;;;22.27;;
11447;SDS011;43755;49.736;8.734;2023-02-15T08:13:25;49.33;;;20.38;;
11447;SDS011;43755;49.736;8.734;2023-02-15T08:15:28;48.03;;;20.75;;
11447;SDS011;43755;49.736;8.734;2023-02-15T08:17:30;38.88;;;20.67;;
11447;SDS011;43755;49.736;8.734;2023-02-15T08:19:31;37.63;;;20.17;;
11447;SDS011;43755;49.736;8.734;2023-02-15T08:21:35;36.55;;;19.05;;
11447;SDS011;43755;49.736;8.734;2023-02-15T08:23:37;54.08;;;21.52;;
11447;SDS011;43755;49.736;8.734;2023-02-15T08:25:38;42.85;;;21.08;;
11447;SDS011;43755;49.736;8.734;2023-02-15T08:27:39;46.10;;;21.27;;
11447;SDS011;43755;49.736;8.734;2023-02-15T08:29:41;49.28;;;26.08;;
11447;SDS011;43755;49.736;8.734;2023-02-15T08:31:44;30.70;;;19.15;;
11447;SDS011;43755;49.736;8.734;2023-02-15T08:33:47;23.95;;;16.90;;
11447;SDS011;43755;49.736;8.734;2023-02-15T08:35:50;35.90;;;18.52;;
11447;SDS011;43755;49.736;8.734;2023-02-15T08:37:51;31.05;;;18.60;;
11447;SDS011;43755;49.736;8.734;2023-02-15T08:39:53;25.10;;;16.85;;
11447;SDS011;43755;49.736;8.734;2023-02-15T08:41:54;25.45;;;15.52;;
11447;SDS011;43755;49.736;8.734;2023-02-15T08:43:56;25.55;;;16.45;;
11447;SDS011;43755;49.736;8.734;2023-02-15T08:45:59;28.05;;;17.55;;
11447;SDS011;43755;49.736;8.734;2023-02-15T08:48:02;22.92;;;16.13;;
11447;SDS011;43755;49.736;8.734;2023-02-15T08:50:04;28.92;;;17.00;;
11447;SDS011;43755;49.736;8.734;2023-02-15T08:52:06;38.80;;;17.88;;
11447;SDS011;43755;49.736;8.734;2023-02-15T08:54:08;26.80;;;18.65;;
11447;SDS011;43755;49.736;8.734;2023-02-15T08:56:11;24.38;;;18.20;;
11447;SDS011;43755;49.736;8.734;2023-02-15T08:58:12;28.45;;;18.23;;
11447;SDS011;43755;49.736;8.734;2023-02-15T09:00:14;40.30;;;18.15;;
11447;SDS011;43755;49.736;8.734;2023-02-15T09:02:17;24.15;;;18.08;;
11447;SDS011;43755;49.736;8.734;2023-02-15T09:04:20;32.78;;;20.50;;
11447;SDS011;43755;49.736;8.734;2023-02-15T09:06:22;113.68;;;21.40;;
11447;SDS011;43755;49.736;8.734;2023-02-15T09:08:24;136.30;;;21.13;;
11447;SDS011;43755;49.736;8.734;2023-02-15T09:10:26;28.58;;;17.27;;
11447;SDS011;43755;49.736;8.734;2023-02-15T09:12:27;27.70;;;18.33;;
11447;SDS011;43755;49.736;8.734;2023-02-15T09:14:29;49.83;;;17.60;;
11447;SDS011;43755;49.736;8.734;2023-02-15T09:16:31;42.58;;;16.55;;
11447;SDS011;43755;49.736;8.734;2023-02-15T09:18:34;27.85;;;16.15;;
11447;SDS011;43755;49.736;8.734;2023-02-15T09:20:39;43.33;;;16.48;;
11447;SDS011;43755;49.736;8.734;2023-02-15T09:22:40;40.50;;;15.63;;
11447;SDS011;43755;49.736;8.734;2023-02-15T09:24:41;33.17;;;15.38;;
11447;SDS011;43755;49.736;8.734;2023-02-15T09:26:44;19.33;;;14.50;;
11447;SDS011;43755;49.736;8.734;2023-02-15T09:28:47;21.05;;;15.02;;
11447;SDS011;43755;49.736;8.734;2023-02-15T09:30:52;41.60;;;16.52;;
11447;SDS011;43755;49.736;8.734;2023-02-15T09:32:53;48.78;;;16.58;;
11447;SDS011;43755;49.736;8.734;2023-02-15T09:34:55;27.50;;;16.05;;
11447;SDS011;43755;49.736;8.734;2023-02-15T09:36:58;49.33;;;15.85;;
11447;SDS011;43755;49.736;8.734;2023-02-15T09:39:00;33.97;;;16.48;;
11447;SDS011;43755;49.736;8.734;2023-02-15T09:41:11;20.98;;;15.27;;
11447;SDS011;43755;49.736;8.734;2023-02-15T09:43:27;21.10;;;15.40;;
11447;SDS011;43755;49.736;8.734;2023-02-15T09:45:42;24.42;;;15.80;;
11447;SDS011;43755;49.736;8.734;2023-02-15T09:50:21;21.80;;;16.35;;
11447;SDS011;43755;49.736;8.734;2023-02-15T09:52:40;24.08;;;15.73;;
11447;SDS011;43755;49.736;8.734;2023-02-15T09:54:57;31.42;;;15.65;;
11447;SDS011;43755;49.736;8.734;2023-02-15T09:57:08;60.53;;;16.98;;
11447;SDS011;43755;49.736;8.734;2023-02-15T09:59:19;26.00;;;16.48;;
11447;SDS011;43755;49.736;8.734;2023-02-15T10:01:30;34.13;;;15.70;;
11447;SDS011;43755;49.736;8.734;2023-02-15T10:03:42;30.88;;;16.52;;
11447;SDS011;43755;49.736;8.734;2023-02-15T10:08:40;21.73;;;15.60;;
11447;SDS011;43755;49.736;8.734;2023-02-15T10:11:03;19.40;;;15.55;;
11447;SDS011;43755;49.736;8.734;2023-02-15T10:13:31;25.38;;;16.38;;
11447;SDS011;43755;49.736;8.734;2023-02-15T10:15:49;31.25;;;15.82;;
11447;SDS011;43755;49.736;8.734;2023-02-15T10:18:13;46.75;;;16.67;;
11447;SDS011;43755;49.736;8.734;2023-02-15T10:20:28;27.33;;;16.92;;
11447;SDS011;43755;49.736;8.734;2023-02-15T10:22:42;25.00;;;15.77;;
11447;SDS011;43755;49.736;8.734;2023-02-15T10:27:24;27.48;;;15.75;;
11447;SDS011;43755;49.736;8.734;2023-02-15T10:29:28;21.60;;;15.15;;
11447;SDS011;43755;49.736;8.734;2023-02-15T10:31:37;47.03;;;15.98;;
11447;SDS011;43755;49.736;8.734;2023-02-15T10:33:47;25.13;;;16.80;;
11447;SDS011;43755;49.736;8.734;2023-02-15T10:36:00;47.58;;;17.00;;
11447;SDS011;43755;49.736;8.734;2023-02-15T10:38:15;75.18;;;18.65;;
11447;SDS011;43755;49.736;8.734;2023-02-15T10:40:32;91.28;;;18.13;;
11447;SDS011;43755;49.736;8.734;2023-02-15T10:42:45;33.80;;;17.73;;
11447;SDS011;43755;49.736;8.734;2023-02-15T10:45:06;33.13;;;18.35;;
11447;SDS011;43755;49.736;8.734;2023-02-15T10:47:33;68.10;;;18.63;;
11447;SDS011;43755;49.736;8.734;2023-02-15T10:49:53;67.53;;;19.95;;
11447;SDS011;43755;49.736;8.734;2023-02-15T10:52:11;74.57;;;19.48;;
11447;SDS011;43755;49.736;8.734;2023-02-15T10:54:24;79.78;;;21.95;;
11447;SDS011;43755;49.736;8.734;2023-02-15T10:56:41;121.47;;;23.25;;
11447;SDS011;43755;49.736;8.734;2023-02-15T10:59:03;68.57;;;20.05;;
11447;SDS011;43755;49.736;8.734;2023-02-15T11:01:16;133.65;;;22.83;;
11447;SDS011;43755;49.736;8.734;2023-02-15T11:03:26;46.80;;;22.52;;
11447;SDS011;43755;49.736;8.734;2023-02-15T11:05:39;125.40;;;25.27;;
11447;SDS011;43755;49.736;8.734;2023-02-15T11:07:49;110.10;;;24.02;;
11447;SDS011;43755;49.736;8.734;2023-02-15T11:09:55;86.68;;;22.67;;
11447;SDS011;43755;49.736;8.734;2023-02-15T11:12:03;66.25;;;22.25;;
11447;SDS011;43755;49.736;8.734;2023-02-15T11:14:13;76.47;;;22.95;;
11447;SDS011;43755;49.736;8.734;2023-02-15T11:16:17;94.70;;;23.45;;
11447;SDS011;43755;49.736;8.734;2023-02-15T11:18:23;74.47;;;25.50;;
11447;SDS011;43755;49.736;8.734;2023-02-15T11:20:30;58.47;;;26.58;;
11447;SDS011;43755;49.736;8.734;2023-02-15T11:22:36;61.90;;;21.50;;
11447;SDS011;43755;49.736;8.734;2023-02-15T11:24:39;55.80;;;23.52;;
11447;SDS011;43755;49.736;8.734;2023-02-15T11:26:44;42.17;;;24.05;;
11447;SDS011;43755;49.736;8.734;2023-02-15T11:28:51;60.38;;;22.38;;
11447;SDS011;43755;49.736;8.734;2023-02-15T11:30:57;72.18;;;22.45;;
11447;SDS011;43755;49.736;8.734;2023-02-15T11:33:01;69.63;;;23.73;;
11447;SDS011;43755;49.736;8.734;2023-02-15T11:35:10;59.33;;;24.35;;
11447;SDS011;43755;49.736;8.734;2023-02-15T11:37:24;86.25;;;25.58;;
11447;SDS011;43755;49.736;8.734;2023-02-15T11:39:31;55.58;;;25.77;;
11447;SDS011;43755;49.736;8.734;2023-02-15T11:41:34;43.22;;;23.60;;
11447;SDS011;43755;49.736;8.734;2023-02-15T11:43:39;40.78;;;23.70;;
11447;SDS011;43755;49.736;8.734;2023-02-15T11:45:46;39.20;;;23.75;;
11447;SDS011;43755;49.736;8.734;2023-02-15T11:47:48;38.83;;;22.63;;
11447;SDS011;43755;49.736;8.734;2023-02-15T11:49:49;34.72;;;23.63;;
11447;SDS011;43755;49.736;8.734;2023-02-15T11:51:51;38.65;;;25.02;;
11447;SDS011;43755;49.736;8.734;2023-02-15T11:53:54;37.97;;;24.15;;
11447;SDS011;43755;49.736;8.734;2023-02-15T11:55:56;25.42;;;19.38;;
11447;SDS011;43755;49.736;8.734;2023-02-15T11:57:59;26.90;;;20.80;;
11447;SDS011;43755;49.736;8.734;2023-02-15T12:00:09;28.65;;;21.38;;
11447;SDS011;43755;49.736;8.734;2023-02-15T12:02:18;22.67;;;18.75;;
11447;SDS011;43755;49.736;8.734;2023-02-15T12:04:22;23.52;;;17.67;;
11447;SDS011;43755;49.736;8.734;2023-02-15T12:06:26;20.88;;;17.13;;
11447;SDS011;43755;49.736;8.734;2023-02-15T12:08:31;20.77;;;17.05;;
11447;SDS011;43755;49.736;8.734;2023-02-15T12:10:40;21.60;;;16.77;;
11447;SDS011;43755;49.736;8.734;2023-02-15T12:12:49;21.60;;;17.52;;
11447;SDS011;43755;49.736;8.734;2023-02-15T12:15:11;22.50;;;18.85;;
11447;SDS011;43755;49.736;8.734;2023-02-15T12:17:13;23.45;;;16.67;;
11447;SDS011;43755;49.736;8.734;2023-02-15T12:19:21;24.30;;;18.88;;
11447;SDS011;43755;49.736;8.734;2023-02-15T12:21:30;22.17;;;18.38;;
11447;SDS011;43755;49.736;8.734;2023-02-15T12:23:34;22.05;;;18.13;;